createdAt,value
2022-09-05T00:00:13.408Z,19.70
2022-09-05T00:01:13.231Z,19.60
2022-09-05T00:02:12.930Z,19.40
2022-09-05T00:03:14.121Z,19.40
2022-09-05T00:04:25.346Z,19.30
2022-09-05T00:05:13.923Z,19.20
2022-09-05T00:06:14.485Z,19.20
2022-09-05T00:07:34.346Z,19.10
2022-09-05T00:08:13.975Z,18.90
2022-09-05T00:09:14.755Z,19.00
2022-09-05T00:10:15.064Z,19.00
2022-09-05T00:11:39.423Z,19.00
2022-09-05T00:12:13.307Z,19.00
2022-09-05T00:13:13.221Z,19.10
2022-09-05T00:14:13.340Z,19.10
2022-09-05T00:15:16.598Z,19.20
2022-09-05T00:16:13.688Z,19.40
2022-09-05T00:17:15.327Z,19.60
2022-09-05T00:21:29.169Z,19.80
2022-09-05T00:23:29.115Z,19.80
2022-09-05T00:24:19.903Z,20.00
2022-09-05T00:24:23.041Z,19.90
2022-09-05T00:24:27.354Z,20.00
2022-09-05T00:24:30.370Z,20.00
2022-09-05T00:24:34.504Z,20.10
2022-09-05T00:25:31.093Z,20.10
2022-09-05T00:26:15.561Z,20.10
2022-09-05T00:27:13.655Z,20.10
2022-09-05T00:28:25.908Z,20.00
2022-09-05T00:29:14.897Z,20.00
2022-09-05T00:31:08.073Z,19.90
2022-09-05T00:31:54.044Z,19.80
2022-09-05T00:32:14.084Z,19.70
2022-09-05T00:33:17.025Z,19.70
2022-09-05T00:34:13.755Z,19.60
2022-09-05T00:35:13.737Z,19.60
2022-09-05T00:36:15.199Z,19.50
2022-09-05T00:37:14.977Z,19.60
2022-09-05T00:38:13.359Z,19.60
2022-09-05T00:39:13.964Z,19.50
2022-09-05T00:40:18.649Z,19.60
2022-09-05T00:41:13.211Z,19.50
2022-09-05T00:42:13.667Z,19.50
2022-09-05T00:43:16.599Z,19.40
2022-09-05T00:44:13.491Z,19.30
2022-09-05T00:45:19.531Z,19.30
2022-09-05T00:46:13.077Z,19.10
2022-09-05T00:47:13.015Z,19.00
2022-09-05T00:48:13.499Z,19.10
2022-09-05T00:49:13.340Z,18.90
2022-09-05T00:50:13.465Z,18.90
2022-09-05T00:51:14.920Z,19.00
2022-09-05T00:52:12.842Z,19.00
2022-09-05T00:53:13.814Z,19.10
2022-09-05T00:54:15.751Z,19.10
2022-09-05T00:55:12.896Z,19.10
2022-09-05T00:56:13.671Z,19.10
2022-09-05T00:57:17.967Z,19.10
2022-09-05T00:58:13.829Z,19.10
2022-09-05T00:59:14.068Z,19.10
2022-09-05T01:00:17.356Z,19.10
2022-09-05T01:01:20.989Z,19.10
2022-09-05T01:02:14.138Z,19.10
2022-09-05T01:03:13.371Z,19.10
2022-09-05T01:04:13.430Z,19.10
2022-09-05T01:05:15.258Z,19.20
2022-09-05T01:06:18.866Z,19.20
2022-09-05T01:07:15.162Z,19.20
2022-09-05T01:08:13.299Z,19.30
2022-09-05T01:09:13.328Z,19.30
2022-09-05T01:10:14.025Z,19.30
2022-09-05T01:11:12.909Z,19.20
2022-09-05T01:12:13.121Z,19.30
2022-09-05T01:13:13.222Z,19.30
2022-09-05T01:14:13.230Z,19.30
2022-09-05T01:15:15.168Z,19.30
2022-09-05T01:16:13.274Z,19.20
2022-09-05T01:17:13.415Z,19.20
2022-09-05T01:18:13.272Z,19.20
2022-09-05T01:19:16.003Z,19.10
2022-09-05T01:20:19.059Z,19.10
2022-09-05T01:21:13.584Z,19.10
2022-09-05T01:22:13.771Z,19.00
2022-09-05T01:23:13.684Z,19.10
2022-09-05T01:24:13.843Z,19.10
2022-09-05T01:25:13.777Z,19.00
2022-09-05T01:26:13.907Z,19.00
2022-09-05T01:27:12.893Z,19.10
2022-09-05T01:29:14.394Z,19.00
2022-09-05T01:29:19.020Z,19.00
2022-09-05T01:30:13.554Z,19.10
2022-09-05T01:31:13.912Z,19.10
2022-09-05T01:32:14.504Z,18.90
2022-09-05T01:33:13.473Z,19.00
2022-09-05T01:34:13.718Z,19.00
2022-09-05T01:35:13.400Z,19.00
2022-09-05T01:36:13.282Z,19.00
2022-09-05T01:37:24.847Z,19.00
2022-09-05T01:38:13.535Z,19.00
2022-09-05T01:40:11.659Z,19.10
2022-09-05T01:40:16.224Z,19.10
2022-09-05T01:41:18.559Z,19.10
2022-09-05T01:42:13.662Z,19.10
2022-09-05T01:43:13.599Z,19.20
2022-09-05T01:44:14.634Z,19.10
2022-09-05T01:45:15.865Z,19.20
2022-09-05T01:46:14.289Z,19.30
2022-09-05T01:47:13.722Z,19.20
2022-09-05T01:48:13.657Z,19.20
2022-09-05T01:49:13.879Z,19.30
2022-09-05T01:50:12.967Z,19.30
2022-09-05T01:51:28.007Z,19.20
2022-09-05T01:52:13.695Z,19.20
2022-09-05T01:53:15.030Z,19.20
2022-09-05T01:54:24.122Z,19.20
2022-09-05T01:55:13.447Z,19.20
2022-09-05T01:56:15.081Z,19.20
2022-09-05T01:57:13.055Z,19.20
2022-09-05T01:58:14.653Z,19.20
2022-09-05T01:59:16.207Z,19.20
2022-09-05T02:00:13.202Z,19.20
2022-09-05T02:01:30.008Z,19.20
2022-09-05T02:02:13.700Z,19.20
2022-09-05T02:03:18.905Z,19.30
2022-09-05T02:04:14.550Z,19.30
2022-09-05T02:05:13.649Z,19.20
2022-09-05T02:06:15.102Z,19.30
2022-09-05T02:07:19.887Z,19.30
2022-09-05T02:08:16.363Z,19.30
2022-09-05T02:09:13.300Z,19.20
2022-09-05T02:10:13.210Z,19.30
2022-09-05T02:11:13.410Z,19.20
2022-09-05T02:12:13.536Z,19.30
2022-09-05T02:13:13.480Z,19.30
2022-09-05T02:14:14.262Z,19.30
2022-09-05T02:15:15.102Z,19.40
2022-09-05T02:16:14.752Z,19.20
2022-09-05T02:17:33.514Z,19.20
2022-09-05T02:18:14.256Z,19.10
2022-09-05T02:19:13.476Z,19.30
2022-09-05T02:20:13.340Z,19.30
2022-09-05T02:21:13.588Z,19.30
2022-09-05T02:22:15.034Z,19.30
2022-09-05T02:23:38.947Z,19.20
2022-09-05T02:24:13.951Z,19.20
2022-09-05T02:25:33.503Z,19.10
2022-09-05T02:26:13.027Z,19.10
2022-09-05T02:27:31.574Z,19.10
2022-09-05T02:28:13.760Z,19.30
2022-09-05T02:29:28.490Z,19.40
2022-09-05T02:30:13.982Z,19.50
2022-09-05T02:31:20.022Z,19.30
2022-09-05T02:32:12.755Z,19.20
2022-09-05T02:33:13.998Z,19.10
2022-09-05T02:34:13.014Z,19.10
2022-09-05T02:35:13.780Z,19.00
2022-09-05T02:36:13.067Z,19.10
2022-09-05T02:37:13.310Z,19.10
2022-09-05T02:42:17.209Z,19.00
2022-09-05T02:43:00.106Z,19.10
2022-09-05T02:45:06.088Z,19.00
2022-09-05T02:45:07.530Z,19.10
2022-09-05T02:45:12.796Z,19.00
2022-09-05T02:45:14.819Z,19.00
2022-09-05T02:45:18.445Z,19.10
2022-09-05T02:45:23.799Z,19.10
2022-09-05T02:46:13.453Z,19.00
2022-09-05T02:47:13.765Z,19.10
2022-09-05T02:48:15.360Z,19.10
2022-09-05T02:50:00.194Z,19.10
2022-09-05T02:53:41.245Z,19.20
2022-09-05T02:57:23.785Z,19.20
2022-09-05T02:57:29.017Z,19.20
2022-09-05T02:57:29.794Z,19.20
2022-09-05T02:57:33.716Z,19.30
2022-09-05T02:57:33.866Z,19.40
2022-09-05T02:57:37.967Z,19.30
2022-09-05T02:57:43.490Z,19.30
2022-09-05T02:58:14.521Z,19.40
2022-09-05T02:59:16.957Z,19.40
2022-09-05T03:00:13.839Z,19.40
2022-09-05T03:01:14.042Z,19.40
2022-09-05T03:02:24.926Z,19.40
2022-09-05T03:03:13.864Z,19.40
2022-09-05T03:04:14.142Z,19.30
2022-09-05T03:05:13.436Z,19.30
2022-09-05T03:06:13.286Z,19.20
2022-09-05T03:07:14.367Z,19.30
2022-09-05T03:08:13.306Z,19.30
2022-09-05T03:09:17.344Z,19.20
2022-09-05T03:10:14.801Z,19.30
2022-09-05T03:11:15.483Z,19.30
2022-09-05T03:12:29.259Z,19.50
2022-09-05T03:13:15.192Z,19.70
2022-09-05T03:14:13.218Z,19.50
2022-09-05T03:15:22.597Z,19.40
2022-09-05T03:16:16.631Z,19.40
2022-09-05T03:17:13.645Z,19.40
2022-09-05T03:18:20.256Z,19.40
2022-09-05T03:19:13.700Z,19.50
2022-09-05T03:20:14.215Z,19.40
2022-09-05T03:21:13.182Z,19.50
2022-09-05T03:22:13.069Z,19.30
2022-09-05T03:23:12.944Z,19.30
2022-09-05T03:24:13.152Z,19.40
2022-09-05T03:25:13.369Z,19.40
2022-09-05T03:26:13.517Z,19.40
2022-09-05T03:27:14.830Z,19.50
2022-09-05T03:28:15.756Z,19.50
2022-09-05T03:29:13.539Z,19.40
2022-09-05T03:30:13.423Z,19.40
2022-09-05T03:31:20.298Z,19.40
2022-09-05T03:32:13.926Z,19.40
2022-09-05T03:33:12.719Z,19.30
2022-09-05T03:34:15.123Z,19.40
2022-09-05T03:35:13.340Z,19.40
2022-09-05T03:36:13.390Z,19.50
2022-09-05T03:37:13.672Z,19.50
2022-09-05T03:38:13.728Z,19.50
2022-09-05T03:39:13.922Z,19.70
2022-09-05T03:40:17.959Z,19.60
2022-09-05T03:41:12.920Z,19.40
2022-09-05T03:42:14.696Z,19.40
2022-09-05T03:43:13.497Z,19.40
2022-09-05T03:44:13.432Z,19.50
2022-09-05T03:45:13.509Z,19.60
2022-09-05T03:46:14.739Z,19.70
2022-09-05T03:47:13.731Z,19.60
2022-09-05T03:48:27.891Z,19.60
2022-09-05T03:50:05.857Z,19.70
2022-09-05T03:53:43.684Z,19.60
2022-09-05T03:57:06.447Z,19.40
2022-09-05T03:57:10.815Z,19.40
2022-09-05T03:57:17.339Z,19.40
2022-09-05T03:57:18.607Z,19.30
2022-09-05T03:57:20.585Z,19.50
2022-09-05T03:57:28.306Z,19.40
2022-09-05T03:57:32.296Z,19.40
2022-09-05T03:58:16.772Z,19.30
2022-09-05T03:59:13.924Z,19.30
2022-09-05T04:00:14.301Z,19.20
2022-09-05T04:02:10.241Z,19.20
2022-09-05T04:06:28.762Z,19.20
2022-09-05T04:08:06.830Z,19.30
2022-09-05T04:08:09.417Z,19.20
2022-09-05T04:08:20.390Z,19.20
2022-09-05T04:08:23.789Z,19.20
2022-09-05T04:08:27.806Z,19.30
2022-09-05T04:08:32.385Z,19.30
2022-09-05T04:09:13.406Z,19.30
2022-09-05T04:10:13.668Z,19.40
2022-09-05T04:11:13.710Z,19.30
2022-09-05T04:12:15.239Z,19.30
2022-09-05T04:13:13.143Z,19.20
2022-09-05T04:14:13.233Z,19.20
2022-09-05T04:15:13.071Z,19.20
2022-09-05T04:16:18.153Z,19.30
2022-09-05T04:17:13.454Z,19.20
2022-09-05T04:18:13.396Z,19.20
2022-09-05T04:19:13.495Z,19.10
2022-09-05T04:20:13.378Z,19.00
2022-09-05T04:21:13.354Z,19.00
2022-09-05T04:22:13.239Z,19.10
2022-09-05T04:23:13.064Z,19.10
2022-09-05T04:24:13.280Z,19.20
2022-09-05T04:25:13.825Z,19.10
2022-09-05T04:26:13.965Z,19.10
2022-09-05T04:27:14.285Z,19.10
2022-09-05T04:28:13.218Z,19.00
2022-09-05T04:29:13.334Z,19.10
2022-09-05T04:30:37.864Z,19.10
2022-09-05T04:31:13.010Z,19.20
2022-09-05T04:32:18.986Z,19.20
2022-09-05T04:33:15.351Z,19.20
2022-09-05T04:34:13.260Z,19.20
2022-09-05T04:35:14.880Z,19.50
2022-09-05T04:36:18.147Z,19.60
2022-09-05T04:37:13.358Z,19.60
2022-09-05T04:38:13.649Z,19.50
2022-09-05T04:39:13.640Z,19.50
2022-09-05T04:40:13.730Z,19.40
2022-09-05T04:41:15.216Z,19.40
2022-09-05T04:42:13.072Z,19.40
2022-09-05T04:43:12.929Z,19.40
2022-09-05T04:44:12.816Z,19.30
2022-09-05T04:45:13.742Z,19.20
2022-09-05T04:46:18.331Z,19.30
2022-09-05T04:47:14.249Z,19.30
2022-09-05T04:48:13.728Z,19.20
2022-09-05T04:49:18.733Z,19.20
2022-09-05T04:50:13.421Z,19.10
2022-09-05T04:51:13.307Z,19.10
2022-09-05T04:52:13.808Z,19.10
2022-09-05T04:53:13.881Z,19.10
2022-09-05T04:54:13.334Z,19.10
2022-09-05T04:55:14.777Z,19.00
2022-09-05T04:56:13.647Z,19.00
2022-09-05T04:57:14.030Z,19.00
2022-09-05T04:58:14.797Z,19.10
2022-09-05T05:02:43.216Z,19.10
2022-09-05T05:05:58.462Z,19.10
2022-09-05T05:06:01.124Z,19.10
2022-09-05T05:06:12.053Z,19.00
2022-09-05T05:06:15.113Z,19.10
2022-09-05T05:06:16.462Z,19.00
2022-09-05T05:06:19.739Z,19.00
2022-09-05T05:07:12.990Z,19.10
2022-09-05T05:08:13.144Z,19.00
2022-09-05T05:09:13.175Z,19.00
2022-09-05T05:13:55.322Z,18.90
2022-09-05T05:16:32.546Z,18.80
2022-09-05T05:17:59.037Z,18.90
2022-09-05T05:18:00.262Z,18.90
2022-09-05T05:18:00.300Z,18.80
2022-09-05T05:18:07.039Z,19.00
2022-09-05T05:18:08.956Z,18.80
2022-09-05T05:18:14.682Z,18.90
2022-09-05T05:18:53.170Z,19.00
2022-09-05T05:19:17.214Z,19.00
2022-09-05T05:20:42.384Z,19.00
2022-09-05T05:21:12.941Z,18.90
2022-09-05T05:22:12.836Z,19.00
2022-09-05T05:23:13.718Z,19.10
2022-09-05T05:24:13.750Z,19.00
2022-09-05T05:25:15.160Z,19.00
2022-09-05T05:26:13.041Z,19.00
2022-09-05T05:27:13.083Z,19.10
2022-09-05T05:28:24.811Z,19.30
2022-09-05T05:29:18.838Z,19.10
2022-09-05T05:30:13.820Z,19.10
2022-09-05T05:31:14.075Z,19.20
2022-09-05T05:32:13.122Z,19.20
2022-09-05T05:33:13.261Z,19.30
2022-09-05T05:34:23.891Z,19.30
2022-09-05T05:35:13.168Z,19.40
2022-09-05T05:36:13.578Z,19.50
2022-09-05T05:37:13.825Z,19.40
2022-09-05T05:38:14.744Z,19.40
2022-09-05T05:39:13.544Z,19.50
2022-09-05T05:40:14.676Z,19.50
2022-09-05T05:41:14.689Z,19.50
2022-09-05T05:42:20.571Z,19.60
2022-09-05T05:43:13.428Z,19.60
2022-09-05T05:44:13.777Z,19.60
2022-09-05T05:45:13.823Z,19.70
2022-09-05T05:46:14.433Z,19.80
2022-09-05T05:47:13.419Z,19.80
2022-09-05T05:48:13.247Z,19.70
2022-09-05T05:49:13.172Z,19.70
2022-09-05T05:50:13.130Z,19.70
2022-09-05T05:51:13.094Z,19.70
2022-09-05T05:52:13.035Z,19.70
2022-09-05T05:53:13.068Z,19.80
2022-09-05T05:54:12.916Z,19.90
2022-09-05T05:55:51.398Z,19.90
2022-09-05T05:56:17.020Z,19.90
2022-09-05T05:57:15.243Z,19.80
2022-09-05T05:58:13.436Z,19.80
2022-09-05T05:59:13.721Z,19.70
2022-09-05T06:00:14.912Z,19.80
2022-09-05T06:01:31.674Z,19.90
2022-09-05T06:02:13.234Z,20.00
2022-09-05T06:03:25.308Z,20.00
2022-09-05T06:04:13.479Z,20.00
2022-09-05T06:05:13.447Z,20.00
2022-09-05T06:06:13.551Z,20.10
2022-09-05T06:07:14.942Z,20.10
2022-09-05T06:10:03.786Z,20.10
2022-09-05T06:14:37.475Z,20.20
2022-09-05T06:14:50.125Z,20.10
2022-09-05T06:14:55.185Z,20.10
2022-09-05T06:14:57.885Z,20.10
2022-09-05T06:15:01.178Z,20.20
2022-09-05T06:15:01.624Z,20.20
2022-09-05T06:15:17.786Z,20.10
2022-09-05T06:16:16.579Z,20.20
2022-09-05T06:17:13.453Z,20.20
2022-09-05T06:18:13.376Z,20.20
2022-09-05T06:19:13.353Z,20.30
2022-09-05T06:22:06.139Z,20.40
2022-09-05T06:22:06.675Z,20.30
2022-09-05T06:22:19.269Z,20.50
2022-09-05T06:23:36.585Z,20.50
2022-09-05T06:24:13.138Z,20.50
2022-09-05T06:25:16.806Z,20.60
2022-09-05T06:26:13.514Z,20.60
2022-09-05T06:27:16.450Z,20.70
2022-09-05T06:28:19.158Z,20.70
2022-09-05T06:29:12.852Z,20.80
2022-09-05T06:30:17.103Z,20.80
2022-09-05T06:31:29.426Z,20.90
2022-09-05T06:32:14.111Z,21.20
2022-09-05T06:33:14.922Z,21.10
2022-09-05T06:34:12.854Z,21.20
2022-09-05T06:35:13.592Z,21.30
2022-09-05T06:36:15.245Z,21.30
2022-09-05T06:37:16.685Z,21.50
2022-09-05T06:38:13.900Z,21.50
2022-09-05T06:39:13.987Z,21.60
2022-09-05T06:40:13.007Z,21.60
2022-09-05T06:41:14.729Z,21.60
2022-09-05T06:42:42.543Z,21.70
2022-09-05T06:43:15.565Z,21.80
2022-09-05T06:44:13.621Z,21.80
2022-09-05T06:45:27.068Z,21.80
2022-09-05T06:46:13.192Z,21.90
2022-09-05T06:47:23.760Z,21.90
2022-09-05T06:48:23.829Z,21.90
2022-09-05T06:49:33.375Z,21.90
2022-09-05T06:50:27.414Z,21.80
2022-09-05T06:51:13.221Z,21.80
2022-09-05T06:52:29.636Z,21.80
2022-09-05T06:53:19.746Z,21.80
2022-09-05T06:54:15.040Z,21.80
2022-09-05T06:55:13.266Z,21.90
2022-09-05T06:56:26.003Z,21.90
2022-09-05T06:57:15.568Z,21.90
2022-09-05T06:58:15.091Z,22.00
2022-09-05T06:59:13.052Z,22.10
2022-09-05T07:00:17.621Z,22.00
2022-09-05T07:01:15.202Z,22.20
2022-09-05T07:02:13.946Z,22.20
2022-09-05T07:03:13.561Z,22.20
2022-09-05T07:04:54.020Z,22.20
2022-09-05T07:05:38.561Z,22.30
2022-09-05T07:06:19.478Z,22.50
2022-09-05T07:07:17.018Z,22.60
2022-09-05T07:08:25.123Z,22.50
2022-09-05T07:09:13.493Z,22.60
2022-09-05T07:10:36.850Z,22.50
2022-09-05T07:11:16.922Z,22.60
2022-09-05T07:12:13.519Z,22.50
2022-09-05T07:13:13.359Z,22.50
2022-09-05T07:14:13.346Z,22.60
2022-09-05T07:15:17.313Z,22.60
2022-09-05T07:16:15.294Z,22.80
2022-09-05T07:17:13.385Z,22.80
2022-09-05T07:18:13.324Z,22.70
2022-09-05T07:19:14.947Z,22.80
2022-09-05T07:20:16.656Z,23.00
2022-09-05T07:21:17.370Z,23.10
2022-09-05T07:22:41.742Z,23.00
2022-09-05T07:23:52.729Z,23.00
2022-09-05T07:24:16.905Z,23.00
2022-09-05T07:25:18.234Z,23.00
2022-09-05T07:26:51.368Z,23.00
2022-09-05T07:27:16.531Z,23.00
2022-09-05T07:28:29.806Z,23.30
2022-09-05T07:29:16.599Z,23.40
2022-09-05T07:30:16.504Z,23.50
2022-09-05T07:31:13.509Z,23.40
2022-09-05T07:32:15.001Z,23.40
2022-09-05T07:33:16.030Z,23.50
2022-09-05T07:34:20.573Z,23.30
2022-09-05T07:35:15.412Z,23.50
2022-09-05T07:36:16.022Z,23.60
2022-09-05T07:37:15.285Z,23.70
2022-09-05T07:38:13.090Z,23.60
2022-09-05T07:39:28.427Z,23.60
2022-09-05T07:40:26.008Z,23.60
2022-09-05T07:41:15.212Z,23.70
2022-09-05T07:42:17.489Z,23.70
2022-09-05T07:43:18.585Z,23.80
2022-09-05T07:44:14.447Z,23.80
2022-09-05T07:45:15.053Z,23.50
2022-09-05T07:46:17.758Z,23.50
2022-09-05T07:47:13.761Z,23.50
2022-09-05T07:48:13.623Z,23.50
2022-09-05T07:49:13.460Z,23.70
2022-09-05T07:54:07.370Z,23.70
2022-09-05T07:56:50.434Z,23.90
2022-09-05T07:56:56.644Z,23.90
2022-09-05T07:56:58.767Z,24.20
2022-09-05T07:57:00.801Z,24.10
2022-09-05T07:57:01.706Z,23.90
2022-09-05T07:57:10.214Z,23.90
2022-09-05T07:57:30.097Z,24.20
2022-09-05T07:58:16.786Z,24.20
2022-09-05T07:59:16.828Z,24.10
2022-09-05T08:00:25.776Z,24.30
2022-09-05T08:01:16.441Z,24.30
2022-09-05T08:02:17.662Z,24.10
2022-09-05T08:03:15.166Z,24.40
2022-09-05T08:04:13.294Z,24.40
2022-09-05T08:05:14.984Z,24.60
2022-09-05T08:06:16.311Z,24.50
2022-09-05T08:07:47.117Z,24.70
2022-09-05T08:08:14.711Z,24.60
2022-09-05T08:10:07.013Z,24.70
2022-09-05T08:10:15.370Z,24.70
2022-09-05T08:11:23.362Z,24.50
2022-09-05T08:12:15.293Z,24.80
2022-09-05T08:13:24.666Z,24.80
2022-09-05T08:14:41.746Z,24.90
2022-09-05T08:15:17.600Z,24.70
2022-09-05T08:16:19.446Z,25.00
2022-09-05T08:17:16.658Z,25.10
2022-09-05T08:18:13.800Z,25.20
2022-09-05T08:19:15.159Z,25.00
2022-09-05T08:20:15.199Z,25.10
2022-09-05T08:21:16.450Z,25.10
2022-09-05T08:22:15.499Z,25.30
2022-09-05T08:23:17.373Z,25.50
2022-09-05T08:24:16.489Z,25.50
2022-09-05T08:25:14.969Z,25.50
2022-09-05T08:26:13.746Z,25.40
2022-09-05T08:27:17.982Z,25.60
2022-09-05T08:28:17.630Z,25.30
2022-09-05T08:29:13.752Z,25.40
2022-09-05T08:30:26.283Z,25.40
2022-09-05T08:31:14.899Z,25.60
2022-09-05T08:32:18.473Z,25.30
2022-09-05T08:33:18.856Z,25.60
2022-09-05T08:34:13.911Z,25.70
2022-09-05T08:35:17.195Z,25.90
2022-09-05T08:36:17.623Z,25.90
2022-09-05T08:37:21.044Z,25.80
2022-09-05T08:38:19.018Z,25.80
2022-09-05T08:39:17.421Z,26.10
2022-09-05T08:40:17.107Z,26.30
2022-09-05T08:41:16.598Z,26.10
2022-09-05T08:42:14.720Z,25.90
2022-09-05T08:46:12.622Z,26.10
2022-09-05T08:46:41.709Z,26.50
2022-09-05T08:46:42.438Z,26.40
2022-09-05T08:46:46.634Z,26.40
2022-09-05T08:47:15.497Z,26.20
2022-09-05T08:48:18.026Z,26.50
2022-09-05T08:49:21.473Z,26.50
2022-09-05T08:50:15.993Z,26.30
2022-09-05T08:51:17.078Z,26.20
2022-09-05T08:52:15.590Z,26.50
2022-09-05T08:53:32.913Z,26.70
2022-09-05T08:54:18.374Z,26.90
2022-09-05T08:55:18.949Z,26.80
2022-09-05T08:56:17.032Z,27.00
2022-09-05T08:57:15.276Z,27.20
2022-09-05T08:58:15.656Z,27.10
2022-09-05T08:59:31.582Z,26.70
2022-09-05T09:00:20.577Z,26.80
2022-09-05T09:01:16.438Z,26.90
2022-09-05T09:02:48.054Z,27.10
2022-09-05T09:03:17.075Z,27.20
2022-09-05T09:04:26.709Z,27.30
2022-09-05T09:05:22.922Z,27.50
2022-09-05T09:06:17.336Z,27.40
2022-09-05T09:07:46.986Z,27.30
2022-09-05T09:08:15.927Z,27.40
2022-09-05T09:09:16.278Z,27.30
2022-09-05T09:10:25.743Z,27.30
2022-09-05T09:11:19.447Z,27.50
2022-09-05T09:12:16.880Z,28.00
2022-09-05T09:13:17.822Z,28.50
2022-09-05T09:14:20.145Z,28.90
2022-09-05T09:15:17.605Z,29.20
2022-09-05T09:16:15.122Z,29.60
2022-09-05T09:17:15.767Z,30.00
2022-09-05T09:18:19.360Z,30.50
2022-09-05T09:19:17.646Z,30.90
2022-09-05T09:20:18.191Z,31.00
2022-09-05T09:21:17.428Z,30.70
2022-09-05T09:22:17.157Z,31.00
2022-09-05T09:23:29.047Z,30.40
2022-09-05T09:24:16.723Z,30.40
2022-09-05T09:25:21.093Z,30.30
2022-09-05T09:26:16.094Z,30.00
2022-09-05T09:27:19.087Z,31.10
2022-09-05T09:28:46.807Z,31.70
2022-09-05T09:29:17.067Z,32.00
2022-09-05T09:30:15.572Z,32.30
2022-09-05T09:31:16.464Z,32.50
2022-09-05T09:32:18.120Z,32.90
2022-09-05T09:33:19.131Z,32.80
2022-09-05T09:34:18.865Z,33.10
2022-09-05T09:35:18.266Z,33.00
2022-09-05T09:36:17.422Z,33.20
2022-09-05T09:37:18.156Z,33.10
2022-09-05T09:38:16.835Z,32.10
2022-09-05T09:39:39.355Z,31.40
2022-09-05T09:40:19.857Z,31.20
2022-09-05T09:41:19.095Z,30.50
2022-09-05T09:42:33.712Z,30.20
2022-09-05T09:43:18.632Z,30.00
2022-09-05T09:44:18.309Z,29.90
2022-09-05T09:45:22.505Z,30.90
2022-09-05T09:46:18.505Z,31.70
2022-09-05T09:47:17.954Z,32.00
2022-09-05T09:48:14.946Z,32.10
2022-09-05T09:49:23.012Z,32.60
2022-09-05T09:50:18.045Z,31.20
2022-09-05T09:51:16.928Z,30.30
2022-09-05T09:52:20.935Z,29.40
2022-09-05T09:53:17.799Z,29.40
2022-09-05T09:54:20.763Z,29.20
2022-09-05T09:55:21.410Z,29.30
2022-09-05T09:56:20.132Z,29.30
2022-09-05T09:57:16.549Z,28.80
2022-09-05T09:58:19.708Z,28.60
2022-09-05T09:59:20.253Z,28.70
2022-09-05T10:00:18.613Z,28.40
2022-09-05T10:01:21.524Z,28.20
2022-09-05T10:03:18.505Z,27.70
2022-09-05T10:05:01.309Z,27.90
2022-09-05T10:09:56.563Z,28.00
2022-09-05T10:10:34.785Z,28.60
2022-09-05T10:10:45.152Z,31.20
2022-09-05T10:10:47.955Z,31.90
2022-09-05T10:10:54.671Z,32.30
2022-09-05T10:10:58.571Z,32.90
2022-09-05T10:11:07.995Z,30.40
2022-09-05T10:11:51.967Z,32.80
2022-09-05T10:12:18.708Z,33.10
2022-09-05T10:13:19.832Z,32.90
2022-09-05T10:14:42.134Z,32.60
2022-09-05T10:15:31.161Z,32.20
2022-09-05T10:16:18.389Z,33.50
2022-09-05T10:17:19.159Z,33.50
2022-09-05T10:18:20.411Z,31.40
2022-09-05T10:19:16.454Z,30.30
2022-09-05T10:20:18.604Z,30.10
2022-09-05T10:21:19.070Z,29.70
2022-09-05T10:22:37.759Z,28.90
2022-09-05T10:23:17.600Z,29.20
2022-09-05T10:24:17.556Z,28.60
2022-09-05T10:25:20.009Z,28.30
2022-09-05T10:26:17.387Z,28.10
2022-09-05T10:27:19.542Z,28.00
2022-09-05T10:28:19.305Z,28.30
2022-09-05T10:29:37.164Z,28.40
2022-09-05T10:30:18.071Z,28.60
2022-09-05T10:33:33.796Z,28.90
2022-09-05T10:35:10.444Z,30.00
2022-09-05T10:35:10.839Z,30.60
2022-09-05T10:35:17.458Z,30.20
2022-09-05T10:35:22.492Z,30.90
2022-09-05T10:36:17.696Z,30.70
2022-09-05T10:37:18.278Z,31.00
2022-09-05T10:38:16.603Z,31.30
2022-09-05T10:39:19.302Z,31.10
2022-09-05T10:40:19.668Z,31.20
2022-09-05T10:41:22.760Z,31.50
2022-09-05T10:43:17.979Z,30.20
2022-09-05T10:44:19.382Z,30.20
2022-09-05T10:45:17.601Z,29.70
2022-09-05T10:46:46.655Z,29.70
2022-09-05T10:47:19.144Z,29.80
2022-09-05T10:48:19.195Z,30.70
2022-09-05T10:49:16.512Z,31.30
2022-09-05T10:50:20.143Z,32.30
2022-09-05T10:51:27.352Z,31.90
2022-09-05T10:52:19.829Z,31.90
2022-09-05T10:53:19.739Z,32.20
2022-09-05T10:54:19.200Z,33.50
2022-09-05T10:55:18.170Z,33.40
2022-09-05T10:56:17.813Z,34.30
2022-09-05T10:57:19.629Z,32.80
2022-09-05T10:58:31.856Z,32.60
2022-09-05T11:00:36.821Z,32.40
2022-09-05T11:02:19.091Z,31.70
2022-09-05T11:02:27.304Z,31.00
2022-09-05T11:02:29.117Z,31.80
2022-09-05T11:03:22.887Z,31.90
2022-09-05T11:04:19.594Z,33.00
2022-09-05T11:05:19.490Z,32.30
2022-09-05T11:06:24.622Z,30.70
2022-09-05T11:07:29.444Z,30.50
2022-09-05T11:08:19.546Z,30.70
2022-09-05T11:09:21.436Z,31.20
2022-09-05T11:10:18.287Z,31.40
2022-09-05T11:11:26.122Z,32.20
2022-09-05T11:12:19.053Z,33.00
2022-09-05T11:13:18.946Z,33.20
2022-09-05T11:14:26.385Z,32.80
2022-09-05T11:15:18.637Z,32.60
2022-09-05T11:16:20.028Z,32.90
2022-09-05T11:17:18.569Z,32.20
2022-09-05T11:18:19.528Z,31.30
2022-09-05T11:19:20.564Z,30.40
2022-09-05T11:20:22.488Z,30.60
2022-09-05T11:21:19.757Z,30.00
2022-09-05T11:22:22.362Z,29.90
2022-09-05T11:23:19.456Z,30.60
2022-09-05T11:24:24.227Z,30.90
2022-09-05T11:25:18.583Z,31.60
2022-09-05T11:26:19.679Z,32.10
2022-09-05T11:27:25.533Z,31.10
2022-09-05T11:28:17.439Z,31.40
2022-09-05T11:29:20.194Z,31.60
2022-09-05T11:30:28.699Z,31.70
2022-09-05T11:31:18.375Z,30.20
2022-09-05T11:37:27.330Z,30.00
2022-09-05T11:39:24.018Z,29.00
2022-09-05T11:39:52.769Z,28.70
2022-09-05T11:39:52.769Z,28.70
2022-09-05T11:39:54.428Z,28.50
2022-09-05T11:39:55.344Z,28.90
2022-09-05T11:40:04.352Z,29.90
2022-09-05T11:40:08.463Z,30.90
2022-09-05T11:40:30.124Z,30.70
2022-09-05T11:42:00.749Z,29.00
2022-09-05T11:42:18.884Z,29.10
2022-09-05T11:43:18.357Z,28.80
2022-09-05T11:44:25.148Z,28.70
2022-09-05T11:45:18.711Z,28.60
2022-09-05T11:46:25.629Z,28.40
2022-09-05T11:47:30.201Z,28.10
2022-09-05T11:48:19.981Z,28.50
2022-09-05T11:49:18.831Z,28.90
2022-09-05T11:50:18.627Z,30.10
2022-09-05T11:51:18.000Z,29.20
2022-09-05T11:52:18.966Z,28.40
2022-09-05T11:53:16.974Z,28.60
2022-09-05T11:54:16.901Z,29.60
2022-09-05T11:55:21.177Z,30.30
2022-09-05T11:56:19.188Z,30.00
2022-09-05T11:57:33.581Z,29.60
2022-09-05T11:58:44.297Z,29.80
2022-09-05T11:59:33.471Z,29.30
2022-09-05T12:00:32.185Z,29.40
2022-09-05T12:01:42.742Z,29.20
2022-09-05T12:02:23.316Z,28.80
2022-09-05T12:03:53.551Z,28.90
2022-09-05T12:04:17.702Z,28.90
2022-09-05T12:05:49.921Z,28.50
2022-09-05T12:06:18.749Z,28.50
2022-09-05T12:07:31.872Z,28.70
2022-09-05T12:08:17.538Z,28.50
2022-09-05T12:09:23.833Z,28.50
2022-09-05T12:10:46.725Z,28.40
2022-09-05T12:11:21.911Z,28.30
2022-09-05T12:12:39.269Z,28.20
2022-09-05T12:14:21.218Z,28.30
2022-09-05T12:15:19.021Z,28.40
2022-09-05T12:16:17.474Z,28.50
2022-09-05T12:17:17.192Z,28.50
2022-09-05T12:18:19.554Z,28.60
2022-09-05T12:19:20.065Z,28.60
2022-09-05T12:20:22.149Z,28.80
2022-09-05T12:21:19.483Z,28.50
2022-09-05T12:22:22.291Z,28.60
2022-09-05T12:23:31.184Z,28.80
2022-09-05T12:25:24.908Z,29.00
2022-09-05T12:27:36.476Z,28.50
2022-09-05T12:27:36.622Z,29.10
2022-09-05T12:27:38.043Z,29.00
2022-09-05T12:29:27.700Z,28.40
2022-09-05T12:29:29.085Z,28.40
2022-09-05T12:30:18.215Z,28.30
2022-09-05T12:32:31.020Z,28.60
2022-09-05T12:33:43.744Z,28.70
2022-09-05T12:35:19.834Z,28.90
2022-09-05T12:36:02.195Z,29.20
2022-09-05T12:36:12.192Z,28.90
2022-09-05T12:40:27.559Z,29.20
2022-09-05T12:40:44.819Z,28.80
2022-09-05T12:40:56.188Z,28.40
2022-09-05T12:41:35.078Z,28.50
2022-09-05T12:41:37.847Z,28.40
2022-09-05T12:41:42.851Z,28.80
2022-09-05T12:42:24.166Z,28.70
2022-09-05T12:44:36.622Z,28.30
2022-09-05T12:44:42.203Z,28.10
2022-09-05T12:45:19.484Z,28.10
2022-09-05T12:46:24.467Z,28.10
2022-09-05T12:47:21.088Z,28.30
2022-09-05T12:48:18.231Z,28.50
2022-09-05T12:49:18.318Z,28.40
2022-09-05T12:50:19.281Z,28.20
2022-09-05T12:51:46.773Z,28.60
2022-09-05T12:52:18.549Z,28.20
2022-09-05T12:53:18.106Z,28.00
2022-09-05T12:54:33.639Z,28.40
2022-09-05T12:55:19.661Z,29.20